Time;durP1;ratioP1;P1;durP2;ratioP2;P2;SDS_P1;SDS_P2;PMS_P1;PMS_P2;Temp;Humidity;BMP_temperature;BMP_pressure;BME280_temperature;BME280_humidity;BME280_pressure;Samples;Min_cycle;Max_cycle;Signal;HPM_P1;HPM_P2
2023/01/03 00:01:52;;;;;;;8.68;4.30;;;;;;;;;;4983908;28;94731;-64
2023/01/03 00:04:19;;;;;;;8.40;3.80;;;;;;;;;;4985227;28;92850;-65
2023/01/03 00:06:47;;;;;;;8.63;3.83;;;;;;;;;;4999412;28;92694;-66
2023/01/03 00:09:15;;;;;;;9.32;3.63;;;;;;;;;;4984609;28;92131;-66
2023/01/03 00:14:31;;;;;;;8.25;3.80;;;;;;;;;;4984809;28;92692;-65
2023/01/03 00:16:58;;;;;;;8.07;4.05;;;;;;;;;;4983847;28;92048;-65
2023/01/03 00:19:26;;;;;;;8.25;4.05;;;;;;;;;;4987267;28;92408;-66
2023/01/03 00:21:52;;;;;;;9.05;4.53;;;;;;;;;;4983457;28;92111;-65
2023/01/03 00:24:19;;;;;;;8.60;4.30;;;;;;;;;;4984306;28;92580;-65
2023/01/03 00:26:46;;;;;;;9.50;4.18;;;;;;;;;;4983790;28;93312;-67
2023/01/03 00:29:12;;;;;;;8.60;3.85;;;;;;;;;;4983350;28;91611;-65
2023/01/03 00:31:39;;;;;;;9.25;3.97;;;;;;;;;;4983977;28;92466;-65
2023/01/03 00:34:06;;;;;;;9.70;4.30;;;;;;;;;;4983824;28;93411;-65
2023/01/03 00:36:33;;;;;;;9.85;4.72;;;;;;;;;;4982130;28;94893;-65
2023/01/03 00:38:59;;;;;;;9.43;4.50;;;;;;;;;;4986395;28;95198;-65
2023/01/03 00:41:26;;;;;;;8.85;4.15;;;;;;;;;;4984413;28;92728;-64
2023/01/03 00:43:52;;;;;;;8.65;4.30;;;;;;;;;;4983865;28;92350;-66
2023/01/03 00:46:19;;;;;;;9.00;4.38;;;;;;;;;;4983419;28;93137;-65
2023/01/03 00:48:46;;;;;;;8.70;3.78;;;;;;;;;;4983522;28;92241;-64
2023/01/03 00:51:14;;;;;;;8.65;3.92;;;;;;;;;;4983858;28;92208;-65
2023/01/03 00:53:41;;;;;;;8.88;4.18;;;;;;;;;;4983748;28;92138;-66
2023/01/03 00:56:08;;;;;;;8.38;3.78;;;;;;;;;;4983491;28;92234;-65
2023/01/03 00:58:35;;;;;;;9.13;4.18;;;;;;;;;;4983613;28;92484;-65
2023/01/03 01:01:15;;;;;;;8.63;4.07;;;;;;;;;;4983912;28;95980;-65
2023/01/03 01:03:44;;;;;;;9.20;3.85;;;;;;;;;;4983484;28;95176;-64
2023/01/03 01:06:16;;;;;;;9.40;4.28;;;;;;;;;;4983461;28;93071;-65
2023/01/03 01:08:43;;;;;;;8.55;3.80;;;;;;;;;;4983029;28;92399;-64
2023/01/03 01:11:10;;;;;;;8.27;3.90;;;;;;;;;;4983651;28;92430;-64
2023/01/03 01:13:38;;;;;;;8.73;3.85;;;;;;;;;;4984661;28;94697;-65
2023/01/03 01:16:09;;;;;;;9.02;3.72;;;;;;;;;;4998268;28;92611;-63
2023/01/03 01:18:36;;;;;;;8.18;3.88;;;;;;;;;;4983731;28;92736;-65
2023/01/03 01:21:07;;;;;;;8.23;3.63;;;;;;;;;;4982639;28;93342;-63
2023/01/03 01:23:34;;;;;;;8.07;3.60;;;;;;;;;;4986232;28;92260;-64
2023/01/03 01:26:01;;;;;;;8.45;3.80;;;;;;;;;;4981411;28;95217;-65
2023/01/03 01:28:27;;;;;;;8.85;3.97;;;;;;;;;;4983106;28;92434;-65
2023/01/03 01:30:56;;;;;;;9.32;4.07;;;;;;;;;;4982760;28;92638;-65
2023/01/03 01:33:23;;;;;;;7.93;3.78;;;;;;;;;;4981756;28;92848;-65
2023/01/03 01:35:49;;;;;;;7.65;3.50;;;;;;;;;;4982892;28;92696;-65
2023/01/03 01:38:16;;;;;;;8.93;4.20;;;;;;;;;;4982941;28;92507;-65
2023/01/03 01:40:42;;;;;;;7.90;3.58;;;;;;;;;;4983103;28;92811;-67
2023/01/03 01:46:05;;;;;;;8.88;4.00;;;;;;;;;;4985148;28;92414;-63
2023/01/03 01:48:32;;;;;;;7.68;3.60;;;;;;;;;;4982899;28;92375;-64
2023/01/03 01:50:58;;;;;;;9.05;3.70;;;;;;;;;;4981282;28;94797;-64
2023/01/03 01:53:29;;;;;;;8.48;4.40;;;;;;;;;;4982551;28;92845;-64
2023/01/03 01:56:02;;;;;;;8.50;4.03;;;;;;;;;;4982682;28;92069;-64
2023/01/03 01:58:31;;;;;;;7.57;3.90;;;;;;;;;;4982506;28;94861;-64
2023/01/03 02:00:58;;;;;;;8.05;3.67;;;;;;;;;;4982103;28;93265;-64
2023/01/03 02:03:24;;;;;;;8.00;4.10;;;;;;;;;;4982429;28;92225;-65
2023/01/03 02:05:51;;;;;;;8.93;3.67;;;;;;;;;;4982768;28;92413;-65
2023/01/03 02:08:18;;;;;;;7.40;3.75;;;;;;;;;;4985724;28;93098;-63
2023/01/03 02:10:54;;;;;;;8.10;3.65;;;;;;;;;;4982495;28;92245;-64
2023/01/03 02:13:20;;;;;;;8.40;3.40;;;;;;;;;;4985272;28;93654;-64
2023/01/03 02:15:58;;;;;;;8.35;3.45;;;;;;;;;;4980978;28;94383;-65
2023/01/03 02:18:25;;;;;;;8.88;3.90;;;;;;;;;;4982618;28;95932;-64
2023/01/03 02:21:10;;;;;;;7.85;3.60;;;;;;;;;;4982073;28;93866;-65
2023/01/03 02:23:50;;;;;;;7.90;3.58;;;;;;;;;;4982164;28;91968;-64
2023/01/03 02:26:35;;;;;;;8.07;3.60;;;;;;;;;;4982137;28;92815;-65
2023/01/03 02:29:17;;;;;;;7.55;3.47;;;;;;;;;;4982570;28;93471;-65
2023/01/03 02:31:52;;;;;;;7.78;3.40;;;;;;;;;;4985172;28;92270;-65
2023/01/03 02:34:21;;;;;;;7.90;3.47;;;;;;;;;;4982849;28;92002;-65
2023/01/03 02:37:06;;;;;;;7.85;3.22;;;;;;;;;;4997042;28;94167;-64
2023/01/03 02:39:47;;;;;;;7.32;3.40;;;;;;;;;;4982492;28;92967;-65
2023/01/03 02:45:13;;;;;;;7.35;3.25;;;;;;;;;;4981965;28;92025;-63
2023/01/03 02:48:05;;;;;;;7.50;3.20;;;;;;;;;;4981483;28;92062;-64
2023/01/03 02:50:36;;;;;;;8.38;3.53;;;;;;;;;;4979596;28;92997;-65
2023/01/03 02:53:05;;;;;;;8.65;3.47;;;;;;;;;;4985180;28;91989;-64
2023/01/03 02:55:32;;;;;;;7.68;3.53;;;;;;;;;;4981824;28;92893;-64
2023/01/03 02:58:04;;;;;;;7.13;3.45;;;;;;;;;;4981982;28;92053;-64
2023/01/03 03:00:32;;;;;;;7.18;3.45;;;;;;;;;;4982058;28;92546;-65
2023/01/03 03:03:01;;;;;;;7.63;3.25;;;;;;;;;;4980848;28;93469;-64
2023/01/03 03:05:31;;;;;;;7.10;3.25;;;;;;;;;;4982258;28;92510;-64
2023/01/03 03:07:57;;;;;;;7.90;3.50;;;;;;;;;;4980276;28;95868;-64
2023/01/03 03:13:21;;;;;;;7.15;3.08;;;;;;;;;;4985602;28;92287;-65
2023/01/03 03:15:53;;;;;;;7.28;3.25;;;;;;;;;;4984309;28;92398;-64
2023/01/03 03:18:34;;;;;;;6.75;3.28;;;;;;;;;;4981662;28;92412;-64
2023/01/03 03:26:37;;;;;;;7.80;3.20;;;;;;;;;;4982281;28;91256;-65
2023/01/03 03:29:07;;;;;;;6.90;3.17;;;;;;;;;;4981601;28;92137;-64
2023/01/03 03:31:42;;;;;;;7.45;3.60;;;;;;;;;;4981052;28;93137;-64
2023/01/03 03:34:08;;;;;;;6.60;3.20;;;;;;;;;;4979952;28;94674;-64
2023/01/03 03:36:34;;;;;;;6.93;3.10;;;;;;;;;;4981281;28;94857;-64
2023/01/03 03:39:01;;;;;;;7.05;3.03;;;;;;;;;;4984238;28;93234;-64
2023/01/03 03:47:37;;;;;;;7.28;3.42;;;;;;;;;;4981246;28;92278;-63
2023/01/03 03:50:10;;;;;;;6.63;2.80;;;;;;;;;;4981673;28;92869;-64
2023/01/03 03:52:37;;;;;;;6.50;2.90;;;;;;;;;;4981429;28;92059;-64
2023/01/03 03:55:09;;;;;;;6.72;2.97;;;;;;;;;;4980034;28;92942;-63
2023/01/03 03:57:40;;;;;;;6.30;2.90;;;;;;;;;;4982706;28;92563;-64
2023/01/03 04:00:09;;;;;;;7.35;3.00;;;;;;;;;;4982850;28;95760;-64
2023/01/03 04:02:39;;;;;;;6.95;3.03;;;;;;;;;;4987698;28;92578;-65
2023/01/03 04:05:07;;;;;;;6.72;3.08;;;;;;;;;;4984473;28;92802;-65
2023/01/03 04:07:34;;;;;;;6.10;2.67;;;;;;;;;;4984216;28;92323;-65
2023/01/03 04:10:00;;;;;;;6.53;2.95;;;;;;;;;;4983754;28;93000;-63
2023/01/03 04:12:27;;;;;;;6.95;2.92;;;;;;;;;;4985930;28;93101;-64
2023/01/03 04:14:53;;;;;;;7.18;3.05;;;;;;;;;;4984635;28;92413;-64
2023/01/03 04:17:19;;;;;;;7.30;2.92;;;;;;;;;;4984838;28;93038;-65
2023/01/03 04:19:46;;;;;;;6.35;2.80;;;;;;;;;;4984086;28;93264;-63
2023/01/03 04:22:12;;;;;;;6.20;2.70;;;;;;;;;;4984018;28;92416;-64
2023/01/03 04:24:38;;;;;;;5.88;2.80;;;;;;;;;;4985706;28;94915;-65
2023/01/03 04:27:05;;;;;;;6.70;3.08;;;;;;;;;;4983044;28;92397;-65
2023/01/03 04:29:31;;;;;;;6.72;2.95;;;;;;;;;;4984283;28;92743;-64
2023/01/03 04:32:04;;;;;;;6.32;2.78;;;;;;;;;;4983841;28;92999;-65
2023/01/03 04:34:31;;;;;;;6.05;2.90;;;;;;;;;;4984241;28;92421;-65
2023/01/03 04:36:57;;;;;;;5.88;2.55;;;;;;;;;;4983774;28;92448;-65
2023/01/03 04:39:24;;;;;;;6.10;2.60;;;;;;;;;;4983828;28;93182;-64
2023/01/03 04:41:50;;;;;;;6.15;2.70;;;;;;;;;;4984338;28;91643;-64
2023/01/03 04:44:16;;;;;;;6.22;2.80;;;;;;;;;;4984214;28;92369;-64
2023/01/03 04:46:43;;;;;;;6.28;2.65;;;;;;;;;;4986435;28;92868;-65
2023/01/03 04:49:17;;;;;;;6.47;2.70;;;;;;;;;;4982707;28;94435;-63
2023/01/03 04:51:44;;;;;;;6.55;2.72;;;;;;;;;;4983455;28;93135;-64
2023/01/03 04:54:10;;;;;;;6.13;2.63;;;;;;;;;;4981528;28;92154;-66
2023/01/03 04:56:37;;;;;;;6.50;2.97;;;;;;;;;;4983580;28;92580;-64
2023/01/03 04:59:03;;;;;;;5.63;2.55;;;;;;;;;;4982457;28;94610;-63
2023/01/03 05:01:30;;;;;;;5.90;2.80;;;;;;;;;;4983055;28;92323;-65
2023/01/03 05:04:00;;;;;;;6.07;2.70;;;;;;;;;;4999093;28;92463;-65
2023/01/03 05:06:27;;;;;;;5.30;2.72;;;;;;;;;;4986767;28;91824;-65
2023/01/03 05:08:53;;;;;;;6.00;2.65;;;;;;;;;;4983391;28;92510;-64
2023/01/03 05:11:20;;;;;;;6.28;2.70;;;;;;;;;;4982820;28;92835;-65
2023/01/03 05:13:46;;;;;;;6.85;2.95;;;;;;;;;;4981861;28;94438;-65
2023/01/03 05:16:13;;;;;;;6.07;2.70;;;;;;;;;;4982809;28;95856;-63
2023/01/03 05:18:41;;;;;;;6.35;2.80;;;;;;;;;;4983269;28;92863;-64
2023/01/03 05:26:41;;;;;;;6.40;2.80;;;;;;;;;;4983057;28;93299;-64
2023/01/03 05:29:08;;;;;;;5.82;2.85;;;;;;;;;;4986528;28;91946;-65
2023/01/03 05:31:34;;;;;;;6.88;2.97;;;;;;;;;;4983012;28;92983;-65
2023/01/03 05:34:01;;;;;;;6.53;2.92;;;;;;;;;;4983307;28;92548;-64
2023/01/03 05:36:27;;;;;;;6.25;3.13;;;;;;;;;;4982758;28;92468;-64
2023/01/03 05:38:54;;;;;;;6.63;2.80;;;;;;;;;;4981144;28;95456;-65
2023/01/03 05:44:06;;;;;;;5.95;2.63;;;;;;;;;;4983083;28;93254;-65
2023/01/03 05:46:32;;;;;;;6.20;2.70;;;;;;;;;;4982607;28;92737;-67
2023/01/03 05:48:59;;;;;;;7.05;3.20;;;;;;;;;;4982810;28;92533;-65
2023/01/03 05:51:25;;;;;;;7.05;2.95;;;;;;;;;;4985627;28;93022;-65
2023/01/03 05:53:51;;;;;;;7.10;3.15;;;;;;;;;;4982788;28;92253;-65
2023/01/03 05:56:18;;;;;;;6.53;2.80;;;;;;;;;;4983226;28;92794;-65
2023/01/03 05:58:44;;;;;;;6.00;2.90;;;;;;;;;;4982576;28;93097;-65
2023/01/03 06:01:13;;;;;;;7.00;3.30;;;;;;;;;;4982072;28;92297;-66
2023/01/03 06:03:41;;;;;;;7.10;3.45;;;;;;;;;;4981031;28;94396;-65
2023/01/03 06:06:08;;;;;;;6.65;3.10;;;;;;;;;;4982170;28;93047;-64
2023/01/03 06:08:35;;;;;;;5.72;2.70;;;;;;;;;;4982632;28;92146;-65
2023/01/03 06:11:05;;;;;;;6.55;2.83;;;;;;;;;;4982009;28;93003;-65
2023/01/03 06:13:32;;;;;;;5.90;2.50;;;;;;;;;;4985498;28;93450;-65
2023/01/03 06:18:50;;;;;;;7.22;3.05;;;;;;;;;;4970606;28;93113;-65
2023/01/03 06:21:17;;;;;;;6.82;3.15;;;;;;;;;;4982256;28;91653;-65
2023/01/03 06:23:46;;;;;;;6.82;3.13;;;;;;;;;;4982444;28;92364;-65
2023/01/03 06:26:13;;;;;;;7.15;3.33;;;;;;;;;;4982123;28;93206;-65
2023/01/03 06:28:40;;;;;;;6.93;3.30;;;;;;;;;;4980530;28;94479;-64
2023/01/03 06:31:06;;;;;;;7.28;3.30;;;;;;;;;;4982237;28;95311;-65
2023/01/03 06:33:33;;;;;;;7.47;3.42;;;;;;;;;;4996992;28;93663;-64
2023/01/03 06:36:03;;;;;;;7.03;3.20;;;;;;;;;;4985133;28;91933;-63
2023/01/03 06:38:30;;;;;;;5.85;2.78;;;;;;;;;;4981767;28;92960;-64
2023/01/03 06:40:57;;;;;;;6.15;3.20;;;;;;;;;;4979151;28;92140;-65
2023/01/03 06:43:24;;;;;;;5.93;2.80;;;;;;;;;;4997347;28;93335;-65
2023/01/03 06:54:08;;;;;;;5.55;2.70;;;;;;;;;;4980444;28;95253;-64
2023/01/03 06:56:35;;;;;;;;;;;;;;;;;;4982241;28;92893;-65
2023/01/03 06:59:01;;;;;;;;;;;;;;;;;;4984573;28;121364;-65
2023/01/03 07:01:27;;;;;;;7.00;3.08;;;;;;;;;;4982600;28;106928;-65
2023/01/03 07:03:54;;;;;;;6.82;3.15;;;;;;;;;;4982188;28;92705;-66
2023/01/03 07:06:22;;;;;;;6.10;2.70;;;;;;;;;;4981501;28;92898;-65
2023/01/03 07:08:50;;;;;;;6.03;2.90;;;;;;;;;;4981819;28;91979;-66
2023/01/03 07:11:16;;;;;;;6.63;2.90;;;;;;;;;;4996825;28;92399;-63
2023/01/03 07:13:58;;;;;;;6.28;2.80;;;;;;;;;;4981269;28;93792;-64
2023/01/03 07:16:44;;;;;;;6.80;3.20;;;;;;;;;;4996735;28;92167;-64
2023/01/03 07:19:12;;;;;;;6.40;2.58;;;;;;;;;;4981839;28;95762;-64
2023/01/03 07:21:39;;;;;;;6.00;2.83;;;;;;;;;;4981396;28;92201;-64
2023/01/03 07:24:06;;;;;;;6.45;2.85;;;;;;;;;;4981857;28;93477;-66
2023/01/03 07:26:33;;;;;;;6.45;2.53;;;;;;;;;;4981188;28;93607;-66
2023/01/03 07:29:00;;;;;;;6.22;2.70;;;;;;;;;;4981683;28;92298;-65
2023/01/03 07:31:27;;;;;;;6.75;2.70;;;;;;;;;;4981805;28;92554;-65
2023/01/03 07:33:53;;;;;;;5.70;2.63;;;;;;;;;;4984691;28;93054;-65
2023/01/03 07:36:20;;;;;;;5.70;2.70;;;;;;;;;;4985356;28;91926;-65
2023/01/03 07:38:47;;;;;;;6.22;2.83;;;;;;;;;;4984657;28;92587;-65
2023/01/03 07:41:14;;;;;;;5.50;2.50;;;;;;;;;;4987458;28;92785;-65
2023/01/03 07:43:42;;;;;;;5.85;2.67;;;;;;;;;;4983507;28;94604;-65
2023/01/03 07:46:14;;;;;;;6.70;2.40;;;;;;;;;;4984474;28;92737;-65
2023/01/03 07:48:41;;;;;;;5.30;2.72;;;;;;;;;;4984742;28;92427;-66
2023/01/03 07:51:08;;;;;;;5.82;2.53;;;;;;;;;;4983363;28;94679;-65
2023/01/03 07:53:37;;;;;;;5.55;2.60;;;;;;;;;;4999587;28;92734;-65
2023/01/03 07:56:03;;;;;;;5.97;2.63;;;;;;;;;;4984251;28;92490;-64
2023/01/03 07:58:38;;;;;;;5.60;2.33;;;;;;;;;;4984257;28;92547;-65
2023/01/03 08:01:06;;;;;;;7.32;3.10;;;;;;;;;;4984487;28;91380;-64
2023/01/03 08:03:33;;;;;;;5.93;2.40;;;;;;;;;;4987414;28;92206;-67
2023/01/03 08:06:01;;;;;;;5.55;2.58;;;;;;;;;;4999349;28;93019;-65
2023/01/03 08:08:27;;;;;;;5.60;2.50;;;;;;;;;;4982143;28;94498;-64
2023/01/03 08:13:39;;;;;;;5.10;2.28;;;;;;;;;;4971228;28;92948;-65
2023/01/03 08:16:07;;;;;;;5.22;2.60;;;;;;;;;;4984350;28;92086;-68
2023/01/03 08:18:33;;;;;;;5.90;2.42;;;;;;;;;;4983613;28;93285;-67
2023/01/03 08:21:00;;;;;;;5.57;2.47;;;;;;;;;;4983778;28;92915;-65
2023/01/03 08:23:26;;;;;;;6.10;2.60;;;;;;;;;;4983432;28;92211;-65
2023/01/03 08:25:58;;;;;;;6.10;2.63;;;;;;;;;;4976941;28;92795;-66
2023/01/03 08:28:24;;;;;;;5.90;2.30;;;;;;;;;;4983863;28;92005;-65
2023/01/03 08:30:51;;;;;;;4.95;2.22;;;;;;;;;;4983554;28;92614;-65
2023/01/03 08:33:18;;;;;;;6.25;2.58;;;;;;;;;;4981630;28;95185;-66
2023/01/03 08:35:53;;;;;;;6.95;2.63;;;;;;;;;;4982144;28;93196;-66
2023/01/03 08:38:23;;;;;;;5.50;2.47;;;;;;;;;;4983369;28;92231;-65
2023/01/03 08:40:50;;;;;;;5.90;2.30;;;;;;;;;;4982801;28;93470;-66
2023/01/03 08:43:16;;;;;;;5.40;2.25;;;;;;;;;;4983060;28;92412;-66
2023/01/03 08:45:43;;;;;;;6.15;2.42;;;;;;;;;;4983159;28;92666;-65
2023/01/03 08:48:10;;;;;;;5.40;2.30;;;;;;;;;;4986388;28;92105;-64
2023/01/03 08:50:37;;;;;;;4.53;2.20;;;;;;;;;;4983665;28;92376;-65
2023/01/03 08:53:04;;;;;;;5.88;2.33;;;;;;;;;;4982947;28;93127;-65
2023/01/03 08:55:31;;;;;;;5.68;2.38;;;;;;;;;;4981789;28;92123;-65
2023/01/03 08:57:58;;;;;;;5.93;2.40;;;;;;;;;;4981483;28;94353;-65
2023/01/03 09:00:25;;;;;;;5.18;2.70;;;;;;;;;;4981076;28;93139;-66
2023/01/03 09:02:52;;;;;;;5.47;2.15;;;;;;;;;;4982676;28;92121;-66
2023/01/03 09:05:19;;;;;;;6.05;2.45;;;;;;;;;;4982864;28;92436;-67
2023/01/03 09:07:46;;;;;;;5.68;2.38;;;;;;;;;;4982464;28;94217;-65
2023/01/03 09:10:12;;;;;;;6.15;2.50;;;;;;;;;;4985870;28;92180;-65
2023/01/03 09:12:38;;;;;;;4.80;2.22;;;;;;;;;;4982203;28;93323;-66
2023/01/03 09:15:06;;;;;;;5.05;2.75;;;;;;;;;;4983413;28;91729;-65
2023/01/03 09:17:32;;;;;;;3.90;1.98;;;;;;;;;;4982617;28;92530;-64
2023/01/03 09:19:58;;;;;;;5.35;2.40;;;;;;;;;;4982746;28;92698;-65
2023/01/03 09:22:25;;;;;;;4.60;2.55;;;;;;;;;;4981092;28;94678;-65
2023/01/03 09:24:51;;;;;;;5.20;2.28;;;;;;;;;;4982802;28;94916;-64
2023/01/03 09:27:18;;;;;;;5.63;2.40;;;;;;;;;;4982302;28;92805;-65
2023/01/03 09:29:44;;;;;;;6.18;2.60;;;;;;;;;;4984466;28;92149;-64
2023/01/03 09:32:10;;;;;;;6.05;2.53;;;;;;;;;;4981243;28;92772;-65
2023/01/03 09:34:37;;;;;;;5.65;2.30;;;;;;;;;;4982894;28;92368;-64
2023/01/03 09:37:03;;;;;;;4.68;1.92;;;;;;;;;;4971718;28;94834;-65
2023/01/03 09:39:30;;;;;;;5.40;2.20;;;;;;;;;;4982964;28;92356;-65
2023/01/03 09:44:43;;;;;;;4.65;2.10;;;;;;;;;;4982839;28;92475;-65
2023/01/03 09:47:16;;;;;;;4.88;2.17;;;;;;;;;;4980390;28;95738;-67
2023/01/03 09:49:43;;;;;;;6.30;2.25;;;;;;;;;;4973187;28;92166;-65
2023/01/03 10:03:43;;;;;;;;;;;;;;;;;;4982310;28;92383;-65
2023/01/03 10:06:39;;;;;;;5.47;2.20;;;;;;;;;;4983387;28;121603;-64
2023/01/03 10:09:24;;;;;;;5.75;2.50;;;;;;;;;;4982081;28;92711;-65
2023/01/03 10:11:54;;;;;;;4.57;2.20;;;;;;;;;;4973046;28;92339;-64
2023/01/03 10:14:20;;;;;;;5.38;2.30;;;;;;;;;;4980467;28;94369;-66
2023/01/03 10:16:55;;;;;;;5.45;2.35;;;;;;;;;;4984235;28;93530;-65
2023/01/03 10:19:28;;;;;;;4.80;2.45;;;;;;;;;;4980814;28;94202;-65
2023/01/03 10:22:00;;;;;;;5.65;2.35;;;;;;;;;;4981342;28;93264;-66
2023/01/03 10:24:29;;;;;;;6.75;2.30;;;;;;;;;;4982357;28;92285;-65
2023/01/03 10:27:15;;;;;;;5.13;2.50;;;;;;;;;;4981896;28;92875;-66
2023/01/03 10:29:42;;;;;;;5.07;2.42;;;;;;;;;;4981711;28;93370;-65
2023/01/03 10:32:14;;;;;;;5.28;2.50;;;;;;;;;;4981972;28;91664;-66
2023/01/03 10:34:41;;;;;;;5.47;2.53;;;;;;;;;;4991978;28;92576;-65
2023/01/03 10:37:18;;;;;;;5.72;2.60;;;;;;;;;;4978773;28;94650;-66
2023/01/03 10:39:44;;;;;;;5.65;2.45;;;;;;;;;;4983144;28;94786;-66
2023/01/03 10:42:20;;;;;;;5.28;2.25;;;;;;;;;;4981394;28;93470;-66
2023/01/03 10:45:07;;;;;;;5.20;2.33;;;;;;;;;;4981455;28;92179;-65
2023/01/03 10:47:33;;;;;;;5.32;2.30;;;;;;;;;;4967820;28;92521;-64
2023/01/03 10:50:00;;;;;;;5.93;2.47;;;;;;;;;;4981462;28;92849;-65
2023/01/03 10:52:30;;;;;;;5.47;2.20;;;;;;;;;;4981019;28;92425;-66
2023/01/03 10:55:02;;;;;;;6.63;2.40;;;;;;;;;;4981801;28;92463;-64
2023/01/03 10:57:40;;;;;;;6.20;2.80;;;;;;;;;;4980354;28;92356;-64
2023/01/03 11:00:19;;;;;;;6.50;2.50;;;;;;;;;;4981775;28;92023;-64
2023/01/03 11:02:46;;;;;;;5.93;2.47;;;;;;;;;;4998979;28;92405;-65
2023/01/03 11:05:16;;;;;;;6.47;2.70;;;;;;;;;;4979972;28;94643;-66
2023/01/03 11:07:44;;;;;;;5.72;2.25;;;;;;;;;;4984100;28;94795;-67
2023/01/03 11:10:17;;;;;;;5.38;2.40;;;;;;;;;;4983513;28;92681;-64
2023/01/03 11:12:45;;;;;;;6.05;2.22;;;;;;;;;;4988406;28;92122;-67
2023/01/03 11:15:30;;;;;;;7.07;2.28;;;;;;;;;;4971166;28;92427;-66
2023/01/03 11:18:05;;;;;;;6.07;2.22;;;;;;;;;;4998804;28;92721;-66
2023/01/03 11:20:38;;;;;;;5.78;2.30;;;;;;;;;;4983619;28;92516;-64
2023/01/03 11:23:15;;;;;;;4.97;2.50;;;;;;;;;;4988174;28;92398;-65
2023/01/03 11:26:00;;;;;;;5.60;2.47;;;;;;;;;;4984606;28;92022;-64
2023/01/03 11:28:26;;;;;;;5.32;2.75;;;;;;;;;;4984312;28;92248;-65
2023/01/03 11:31:18;;;;;;;5.88;2.70;;;;;;;;;;4982509;28;95039;-67
2023/01/03 11:33:50;;;;;;;7.28;2.88;;;;;;;;;;4984734;28;92294;-66
2023/01/03 11:36:19;;;;;;;6.60;2.40;;;;;;;;;;4999780;28;92638;-66
2023/01/03 11:38:52;;;;;;;4.72;2.20;;;;;;;;;;4983951;28;92273;-66
2023/01/03 11:41:22;;;;;;;6.55;2.70;;;;;;;;;;4984288;28;92333;-63
2023/01/03 11:43:48;;;;;;;5.88;2.85;;;;;;;;;;4984076;28;92489;-65
2023/01/03 11:46:39;;;;;;;6.20;2.67;;;;;;;;;;4987326;28;92427;-65
2023/01/03 11:49:06;;;;;;;4.90;2.40;;;;;;;;;;4984936;28;93139;-66
2023/01/03 11:51:41;;;;;;;5.75;2.40;;;;;;;;;;4983862;28;92250;-66
2023/01/03 11:54:16;;;;;;;5.45;2.80;;;;;;;;;;4983646;28;92289;-64
2023/01/03 11:56:43;;;;;;;6.35;2.65;;;;;;;;;;4982561;28;94405;-65
2023/01/03 11:59:32;;;;;;;5.63;2.50;;;;;;;;;;4984106;28;92762;-65
2023/01/03 12:02:02;;;;;;;5.45;2.55;;;;;;;;;;4983888;28;93585;-66
2023/01/03 12:04:36;;;;;;;5.45;2.40;;;;;;;;;;4984217;28;92590;-65
2023/01/03 12:07:06;;;;;;;5.65;2.92;;;;;;;;;;4983609;28;93290;-64
2023/01/03 12:09:58;;;;;;;5.30;2.40;;;;;;;;;;4987088;28;92375;-65
2023/01/03 12:12:40;;;;;;;5.32;2.55;;;;;;;;;;4994407;28;93955;-66
2023/01/03 12:15:19;;;;;;;5.78;2.50;;;;;;;;;;4985470;28;91514;-65
2023/01/03 12:17:59;;;;;;;6.05;2.45;;;;;;;;;;4982809;28;92170;-65
2023/01/03 12:20:36;;;;;;;6.00;2.55;;;;;;;;;;4983631;28;93516;-65
2023/01/03 12:23:11;;;;;;;5.75;2.67;;;;;;;;;;4981780;28;94544;-65
2023/01/03 12:25:41;;;;;;;6.22;2.88;;;;;;;;;;4983651;28;94698;-65
2023/01/03 12:28:10;;;;;;;6.35;2.70;;;;;;;;;;4982118;28;92608;-65
2023/01/03 12:30:40;;;;;;;6.22;2.55;;;;;;;;;;4983392;28;92609;-65
2023/01/03 12:33:22;;;;;;;5.25;2.50;;;;;;;;;;4986552;28;92458;-66
2023/01/03 12:35:57;;;;;;;5.20;2.50;;;;;;;;;;4983551;28;92207;-64
2023/01/03 12:38:27;;;;;;;5.53;2.65;;;;;;;;;;4982868;28;92760;-65
2023/01/03 12:40:54;;;;;;;6.90;3.13;;;;;;;;;;4983439;28;92511;-65
2023/01/03 12:43:37;;;;;;;6.10;2.90;;;;;;;;;;4983404;28;92372;-64
2023/01/03 12:46:10;;;;;;;6.20;2.67;;;;;;;;;;4983087;28;92683;-66
2023/01/03 12:48:44;;;;;;;5.47;2.60;;;;;;;;;;4981437;28;95192;-65
2023/01/03 12:51:12;;;;;;;6.43;3.10;;;;;;;;;;4983511;28;92538;-65
2023/01/03 12:53:54;;;;;;;5.97;2.50;;;;;;;;;;4982971;28;92914;-64
2023/01/03 12:56:20;;;;;;;6.57;2.55;;;;;;;;;;4986183;28;92942;-64
2023/01/03 12:58:56;;;;;;;6.13;2.72;;;;;;;;;;4983128;28;92448;-65
2023/01/03 13:01:25;;;;;;;5.30;2.60;;;;;;;;;;4982112;28;93166;-65
2023/01/03 13:03:54;;;;;;;5.78;2.72;;;;;;;;;;4983009;28;92089;-65
2023/01/03 13:06:22;;;;;;;5.75;2.90;;;;;;;;;;4983371;28;91788;-65
2023/01/03 13:08:48;;;;;;;5.88;2.92;;;;;;;;;;4982652;28;93252;-66
2023/01/03 13:11:15;;;;;;;5.28;2.70;;;;;;;;;;4983927;28;92985;-66
2023/01/03 13:14:08;;;;;;;5.45;2.60;;;;;;;;;;4993999;28;94658;-65
2023/01/03 13:16:34;;;;;;;6.22;2.72;;;;;;;;;;4957283;28;92722;-67
2023/01/03 13:19:19;;;;;;;5.63;2.65;;;;;;;;;;4985972;28;92224;-66
2023/01/03 13:21:51;;;;;;;6.05;2.65;;;;;;;;;;4982525;28;92761;-65
2023/01/03 13:24:38;;;;;;;4.80;2.50;;;;;;;;;;4983135;28;92433;-66
2023/01/03 13:27:19;;;;;;;5.28;2.45;;;;;;;;;;4964463;28;92643;-63
2023/01/03 13:29:49;;;;;;;5.90;2.70;;;;;;;;;;4982749;28;92873;-66
2023/01/03 13:32:18;;;;;;;4.40;2.22;;;;;;;;;;4969904;28;91510;-65
2023/01/03 13:34:57;;;;;;;5.03;2.60;;;;;;;;;;4982653;28;92540;-65
2023/01/03 13:37:28;;;;;;;6.38;2.70;;;;;;;;;;4982010;28;92688;-65
2023/01/03 13:39:57;;;;;;;5.03;2.40;;;;;;;;;;4984435;28;94541;-65
2023/01/03 13:42:32;;;;;;;5.28;2.30;;;;;;;;;;4981580;28;92740;-67
2023/01/03 13:45:14;;;;;;;4.95;2.30;;;;;;;;;;4982637;28;92039;-66
2023/01/03 13:47:41;;;;;;;5.00;2.40;;;;;;;;;;4982698;28;92441;-65
2023/01/03 13:50:08;;;;;;;;;;;;;;;;;;4982694;28;93177;-65
2023/01/03 13:52:54;;;;;;;4.97;2.60;;;;;;;;;;4982571;28;116195;-65
2023/01/03 13:55:39;;;;;;;5.60;2.70;;;;;;;;;;4982566;28;92419;-65
2023/01/03 13:58:44;;;;;;;4.70;2.53;;;;;;;;;;4982743;28;92278;-66
2023/01/03 14:01:37;;;;;;;4.32;2.20;;;;;;;;;;4939893;28;92451;-65
2023/01/03 14:04:22;;;;;;;5.13;2.33;;;;;;;;;;4940172;28;92985;-65
2023/01/03 14:06:57;;;;;;;5.03;2.10;;;;;;;;;;4962297;28;94560;-65
2023/01/03 14:09:26;;;;;;;4.97;2.33;;;;;;;;;;4982383;28;94866;-65
2023/01/03 14:12:02;;;;;;;4.22;2.20;;;;;;;;;;4988044;28;92845;-65
2023/01/03 14:14:31;;;;;;;5.25;2.15;;;;;;;;;;4987964;28;92081;-63
2023/01/03 14:16:58;;;;;;;4.00;2.03;;;;;;;;;;4981870;28;92580;-65
2023/01/03 14:19:29;;;;;;;4.82;2.10;;;;;;;;;;4982148;28;92834;-65
2023/01/03 14:21:58;;;;;;;4.72;2.05;;;;;;;;;;4981865;28;92208;-65
2023/01/03 14:24:49;;;;;;;4.05;2.10;;;;;;;;;;4982459;28;92360;-65
2023/01/03 14:27:16;;;;;;;4.53;2.10;;;;;;;;;;4984833;28;92745;-65
2023/01/03 14:29:46;;;;;;;4.25;2.10;;;;;;;;;;4981960;28;92383;-65
2023/01/03 14:32:24;;;;;;;4.95;2.10;;;;;;;;;;4966070;28;95649;-66
2023/01/03 14:34:59;;;;;;;3.80;1.90;;;;;;;;;;4982140;28;92160;-66
2023/01/03 14:37:26;;;;;;;4.70;2.50;;;;;;;;;;4981362;28;93470;-65
2023/01/03 14:39:53;;;;;;;5.15;2.20;;;;;;;;;;4981555;28;92836;-65
2023/01/03 14:42:19;;;;;;;3.97;2.10;;;;;;;;;;4980517;28;93704;-63
2023/01/03 14:44:50;;;;;;;4.97;2.10;;;;;;;;;;4981912;28;92825;-65
2023/01/03 14:47:17;;;;;;;3.75;2.10;;;;;;;;;;4981470;28;92737;-64
2023/01/03 14:49:48;;;;;;;4.50;2.15;;;;;;;;;;4985456;28;91290;-66
2023/01/03 14:52:17;;;;;;;4.80;2.17;;;;;;;;;;4980090;28;92905;-65
2023/01/03 14:54:49;;;;;;;5.00;2.25;;;;;;;;;;4981712;28;92331;-65
2023/01/03 14:57:20;;;;;;;4.72;2.10;;;;;;;;;;4978361;28;94842;-64
2023/01/03 14:59:47;;;;;;;4.15;1.95;;;;;;;;;;4981665;28;92425;-66
2023/01/03 15:02:14;;;;;;;4.60;2.30;;;;;;;;;;4979337;28;92401;-65
2023/01/03 15:04:42;;;;;;;4.75;2.28;;;;;;;;;;4981544;28;92419;-65
2023/01/03 15:07:27;;;;;;;5.22;2.17;;;;;;;;;;4996134;28;94473;-65
2023/01/03 15:10:04;;;;;;;5.40;2.35;;;;;;;;;;4981574;28;92354;-67
2023/01/03 15:12:33;;;;;;;5.05;2.22;;;;;;;;;;5007713;28;92991;-66
2023/01/03 15:15:27;;;;;;;3.47;1.80;;;;;;;;;;4981939;28;91596;-64
2023/01/03 15:18:00;;;;;;;4.28;2.20;;;;;;;;;;4979194;28;92587;-65
2023/01/03 15:20:33;;;;;;;5.18;1.85;;;;;;;;;;4981503;28;92778;-65
2023/01/03 15:23:00;;;;;;;5.05;2.17;;;;;;;;;;4994825;28;94538;-66
2023/01/03 15:25:31;;;;;;;5.15;2.25;;;;;;;;;;4985828;28;97475;-65
2023/01/03 15:28:33;;;;;;;4.70;2.30;;;;;;;;;;4981084;28;93294;-65
2023/01/03 15:31:18;;;;;;;3.70;2.10;;;;;;;;;;4939604;28;93238;-65
2023/01/03 15:33:56;;;;;;;3.53;1.90;;;;;;;;;;4964492;28;94032;-65
2023/01/03 15:36:25;;;;;;;4.38;2.08;;;;;;;;;;4999779;28;95090;-65
2023/01/03 15:38:51;;;;;;;4.47;2.10;;;;;;;;;;4981362;28;92385;-65
2023/01/03 15:44:37;;;;;;;4.22;2.08;;;;;;;;;;4980365;28;92366;-64
2023/01/03 15:47:06;;;;;;;4.63;1.90;;;;;;;;;;4979967;28;94501;-64
2023/01/03 15:49:44;;;;;;;5.18;2.08;;;;;;;;;;4979632;28;95008;-65
2023/01/03 15:52:14;;;;;;;4.50;2.00;;;;;;;;;;4981588;28;92277;-65
2023/01/03 15:54:41;;;;;;;4.47;1.92;;;;;;;;;;4983247;28;93146;-64
2023/01/03 15:57:28;;;;;;;5.32;2.10;;;;;;;;;;4987535;28;93285;-68
2023/01/03 15:59:56;;;;;;;4.97;2.13;;;;;;;;;;4985347;28;92489;-65
2023/01/03 16:02:25;;;;;;;4.88;2.72;;;;;;;;;;4983145;28;93065;-65
2023/01/03 16:04:52;;;;;;;4.20;1.80;;;;;;;;;;4984408;28;92457;-66
2023/01/03 16:07:19;;;;;;;5.05;2.03;;;;;;;;;;4984006;28;92897;-65